createdAt,value
2018-09-25T00:00:33.802Z,3.60
2018-09-25T00:01:34.490Z,3.80
2018-09-25T00:02:33.780Z,3.90
2018-09-25T00:03:33.774Z,3.50
2018-09-25T00:04:33.759Z,3.80
2018-09-25T00:05:33.747Z,3.80
2018-09-25T00:06:33.740Z,3.60
2018-09-25T00:07:33.751Z,3.80
2018-09-25T00:08:33.720Z,3.40
2018-09-25T00:09:33.703Z,3.90
2018-09-25T00:10:33.694Z,4.00
2018-09-25T00:11:33.683Z,4.00
2018-09-25T00:12:33.670Z,4.20
2018-09-25T00:13:33.676Z,3.60
2018-09-25T00:14:33.648Z,4.80
2018-09-25T00:15:33.638Z,3.90
2018-09-25T00:16:33.655Z,3.30
2018-09-25T00:17:33.619Z,3.80
2018-09-25T00:18:33.607Z,4.20
2018-09-25T00:19:33.596Z,3.50
2018-09-25T00:20:33.585Z,3.30
2018-09-25T00:21:33.575Z,3.60
2018-09-25T00:22:33.582Z,3.60
2018-09-25T00:23:33.555Z,3.30
2018-09-25T00:24:33.545Z,3.50
2018-09-25T00:25:33.533Z,3.40
2018-09-25T00:26:33.519Z,3.80
2018-09-25T00:27:33.508Z,3.80
2018-09-25T00:28:33.511Z,3.80
2018-09-25T00:29:33.488Z,4.30
2018-09-25T00:30:33.475Z,4.00
2018-09-25T00:31:33.467Z,4.30
2018-09-25T00:32:33.455Z,3.70
2018-09-25T00:33:33.456Z,4.10
2018-09-25T00:34:33.453Z,3.50
2018-09-25T00:35:33.423Z,3.80
2018-09-25T00:36:33.410Z,3.70
2018-09-25T00:37:33.401Z,3.30
2018-09-25T00:38:33.388Z,3.60
2018-09-25T00:39:33.377Z,3.60
2018-09-25T00:40:33.381Z,3.50
2018-09-25T00:41:33.357Z,3.40
2018-09-25T00:42:33.347Z,3.50
2018-09-25T00:43:33.334Z,3.90
2018-09-25T00:44:33.323Z,3.50
2018-09-25T00:45:33.328Z,3.90
2018-09-25T00:46:33.306Z,3.70
2018-09-25T00:47:33.295Z,5.10
2018-09-25T00:48:33.282Z,4.30
2018-09-25T00:49:33.269Z,4.40
2018-09-25T00:50:33.297Z,4.40
2018-09-25T00:51:33.292Z,3.90
2018-09-25T00:52:33.239Z,3.90
2018-09-25T00:53:33.228Z,3.80
2018-09-25T00:54:33.219Z,3.80
2018-09-25T00:55:33.205Z,3.80
2018-09-25T00:56:33.213Z,3.50
2018-09-25T00:57:33.186Z,3.50
2018-09-25T00:58:33.172Z,3.30
2018-09-25T00:59:33.165Z,3.50
2018-09-25T01:00:33.151Z,3.40
2018-09-25T01:01:33.139Z,3.40
2018-09-25T01:02:33.141Z,3.30
2018-09-25T01:03:33.116Z,3.90
2018-09-25T01:04:33.108Z,3.40
2018-09-25T01:05:33.095Z,3.80
2018-09-25T01:06:33.099Z,3.60
2018-09-25T01:07:33.091Z,3.50
2018-09-25T01:08:33.076Z,3.50
2018-09-25T01:09:33.056Z,3.50
2018-09-25T01:10:33.046Z,3.40
2018-09-25T01:11:33.990Z,3.60
2018-09-25T01:12:33.058Z,3.40
2018-09-25T01:13:33.008Z,3.10
2018-09-25T01:14:33.000Z,2.90
2018-09-25T01:15:32.988Z,3.00
2018-09-25T01:16:32.977Z,3.10
2018-09-25T01:17:32.965Z,3.30
2018-09-25T01:18:32.995Z,3.70
2018-09-25T01:19:32.942Z,3.10
2018-09-25T01:20:32.935Z,3.50
2018-09-25T01:21:32.921Z,3.60
2018-09-25T01:22:32.912Z,3.70
2018-09-25T01:23:32.901Z,3.80
2018-09-25T01:24:32.904Z,3.90
2018-09-25T01:25:32.879Z,3.50
2018-09-25T01:26:32.867Z,3.50
2018-09-25T01:27:32.858Z,3.40
2018-09-25T01:28:32.887Z,3.50
2018-09-25T01:29:32.838Z,3.80
2018-09-25T01:30:32.823Z,3.80
2018-09-25T01:31:32.815Z,3.60
2018-09-25T01:32:32.805Z,3.60
2018-09-25T01:33:32.792Z,3.20
2018-09-25T01:34:32.797Z,3.30
2018-09-25T01:35:32.772Z,3.20
2018-09-25T01:36:32.761Z,3.30
2018-09-25T01:37:32.748Z,3.70
2018-09-25T01:38:32.738Z,4.10
2018-09-25T01:39:32.745Z,4.00
2018-09-25T01:40:32.720Z,4.10
2018-09-25T01:41:32.705Z,4.50
2018-09-25T01:42:32.708Z,3.90
2018-09-25T01:43:32.684Z,4.40
2018-09-25T01:44:32.685Z,4.00
2018-09-25T01:45:32.663Z,4.70
2018-09-25T01:46:32.649Z,4.90
2018-09-25T01:47:32.640Z,4.40
2018-09-25T01:48:32.628Z,4.30
2018-09-25T01:49:32.642Z,4.90
2018-09-25T01:50:32.609Z,5.70
2018-09-25T01:51:32.596Z,4.70
2018-09-25T01:52:32.587Z,4.70
2018-09-25T01:53:32.576Z,4.60
2018-09-25T01:54:32.563Z,5.20
2018-09-25T01:55:32.576Z,5.60
2018-09-25T01:56:32.542Z,5.40
2018-09-25T01:57:32.530Z,5.00
2018-09-25T01:58:32.520Z,4.90
2018-09-25T01:59:32.511Z,5.40
2018-09-25T02:00:32.501Z,5.70
2018-09-25T02:01:32.500Z,5.70
2018-09-25T02:02:32.478Z,5.80
2018-09-25T02:03:32.471Z,6.00
2018-09-25T02:04:32.458Z,6.30
2018-09-25T02:05:32.447Z,6.10
2018-09-25T02:06:32.450Z,6.50
2018-09-25T02:07:32.426Z,6.70
2018-09-25T02:08:32.429Z,7.70
2018-09-25T02:09:32.401Z,7.70
2018-09-25T02:10:32.392Z,7.30
2018-09-25T02:11:32.400Z,7.60
2018-09-25T02:12:32.372Z,8.20
2018-09-25T02:13:32.377Z,8.40
2018-09-25T02:14:32.349Z,7.50
2018-09-25T02:15:32.336Z,8.60
2018-09-25T02:16:32.979Z,8.80
2018-09-25T02:17:32.317Z,8.50
2018-09-25T02:18:32.320Z,9.30
2018-09-25T02:19:32.295Z,9.90
2018-09-25T02:20:32.292Z,10.80
2018-09-25T02:21:32.271Z,9.60
2018-09-25T02:22:32.262Z,10.40
2018-09-25T02:23:32.268Z,10.10
2018-09-25T02:24:32.239Z,11.50
2018-09-25T02:25:32.229Z,12.50
2018-09-25T02:26:32.221Z,12.20
2018-09-25T02:27:32.215Z,11.20
2018-09-25T02:28:32.211Z,11.10
2018-09-25T02:29:32.189Z,11.20
2018-09-25T02:30:32.194Z,12.00
2018-09-25T02:31:32.164Z,11.80
2018-09-25T02:32:32.153Z,12.00
2018-09-25T02:33:32.182Z,11.80
2018-09-25T02:34:32.131Z,11.60
2018-09-25T02:35:32.119Z,12.70
2018-09-25T02:36:32.112Z,12.30
2018-09-25T02:37:32.099Z,13.00
2018-09-25T02:38:32.089Z,13.70
2018-09-25T02:39:32.095Z,15.40
2018-09-25T02:40:32.065Z,14.80
2018-09-25T02:41:32.054Z,15.90
2018-09-25T02:42:32.044Z,15.70
2018-09-25T02:43:32.037Z,16.20
2018-09-25T02:44:32.041Z,15.60
2018-09-25T02:45:32.025Z,14.80
2018-09-25T02:46:32.003Z,16.00
2018-09-25T02:47:31.991Z,16.20
2018-09-25T02:48:31.982Z,16.30
2018-09-25T02:49:31.985Z,19.10
2018-09-25T02:50:31.956Z,17.00
2018-09-25T02:51:31.947Z,17.30
2018-09-25T02:52:31.950Z,17.70
2018-09-25T02:53:31.927Z,17.20
2018-09-25T02:54:31.931Z,16.70
2018-09-25T02:55:31.906Z,16.70
2018-09-25T02:56:31.891Z,17.60
2018-09-25T02:57:31.883Z,16.40
2018-09-25T02:58:31.871Z,17.00
2018-09-25T02:59:31.874Z,17.20
2018-09-25T03:00:31.861Z,17.80
2018-09-25T03:01:31.839Z,17.50
2018-09-25T03:02:31.826Z,17.30
2018-09-25T03:03:31.814Z,18.30
2018-09-25T03:04:31.806Z,17.80
2018-09-25T03:05:31.809Z,18.50
2018-09-25T03:06:31.784Z,19.70
2018-09-25T03:07:31.772Z,20.10
2018-09-25T03:08:31.760Z,18.70
2018-09-25T03:09:31.757Z,19.50
2018-09-25T03:10:31.758Z,18.90
2018-09-25T03:11:31.730Z,20.30
2018-09-25T03:12:31.720Z,18.80
2018-09-25T03:13:31.707Z,19.60
2018-09-25T03:14:31.697Z,21.10
2018-09-25T03:15:31.686Z,19.60
2018-09-25T03:16:31.691Z,22.30
2018-09-25T03:17:31.664Z,19.70
2018-09-25T03:18:31.652Z,19.50
2018-09-25T03:19:31.640Z,21.80
2018-09-25T03:20:31.644Z,26.40
2018-09-25T03:21:31.632Z,29.70
2018-09-25T03:22:31.609Z,27.10
2018-09-25T03:23:31.598Z,27.50
2018-09-25T03:24:31.591Z,25.40
2018-09-25T03:25:31.591Z,27.10
2018-09-25T03:26:31.567Z,34.30
2018-09-25T03:27:31.575Z,26.40
2018-09-25T03:28:31.558Z,21.20
2018-09-25T03:29:31.586Z,19.70
2018-09-25T03:30:31.521Z,17.50
2018-09-25T03:31:31.523Z,17.80
2018-09-25T03:32:31.514Z,19.20
2018-09-25T03:33:31.503Z,22.90
2018-09-25T03:34:31.480Z,17.60
2018-09-25T03:35:31.471Z,19.40
2018-09-25T03:36:31.454Z,22.10
2018-09-25T03:37:31.459Z,32.00
2018-09-25T03:38:31.434Z,20.60
2018-09-25T03:39:31.425Z,20.00
2018-09-25T03:40:31.411Z,18.40
2018-09-25T03:41:31.402Z,19.30
2018-09-25T03:42:31.403Z,19.40
2018-09-25T03:43:31.391Z,19.00
2018-09-25T03:44:31.367Z,21.70
2018-09-25T03:45:31.356Z,39.00
2018-09-25T03:46:31.348Z,52.70
2018-09-25T03:47:31.334Z,25.60
2018-09-25T03:48:31.339Z,26.90
2018-09-25T03:49:31.324Z,20.90
2018-09-25T03:50:31.308Z,22.50
2018-09-25T03:51:31.293Z,22.50
2018-09-25T03:52:31.299Z,17.30
2018-09-25T03:53:31.276Z,18.80
2018-09-25T03:54:31.257Z,17.50
2018-09-25T03:55:31.247Z,21.90
2018-09-25T03:56:31.234Z,23.70
2018-09-25T03:57:31.226Z,21.20
2018-09-25T03:58:31.235Z,19.70
2018-09-25T03:59:31.258Z,23.00
2018-09-25T04:00:31.194Z,20.60
2018-09-25T04:01:31.185Z,24.30
2018-09-25T04:02:31.169Z,22.10
2018-09-25T04:03:31.158Z,19.50
2018-09-25T04:04:31.160Z,22.50
2018-09-25T04:05:31.138Z,27.70
2018-09-25T04:06:31.126Z,20.70
2018-09-25T04:07:31.975Z,18.40
2018-09-25T04:08:31.126Z,28.50
2018-09-25T04:09:31.092Z,24.90
2018-09-25T04:10:31.084Z,25.30
2018-09-25T04:11:31.071Z,23.40
2018-09-25T04:12:31.061Z,21.10
2018-09-25T04:13:31.049Z,18.50
2018-09-25T04:14:31.047Z,18.50
2018-09-25T04:15:31.028Z,18.80
2018-09-25T04:16:31.017Z,17.40
2018-09-25T04:17:31.006Z,19.10
2018-09-25T04:18:30.996Z,18.60
2018-09-25T04:19:30.996Z,22.40
2018-09-25T04:20:30.973Z,25.40
2018-09-25T04:21:30.962Z,22.10
2018-09-25T04:22:30.949Z,21.10
2018-09-25T04:23:30.939Z,18.70
2018-09-25T04:24:30.955Z,18.40
2018-09-25T04:25:30.918Z,21.10
2018-09-25T04:26:30.909Z,19.80
2018-09-25T04:27:30.898Z,21.70
2018-09-25T04:28:31.087Z,21.80
2018-09-25T04:29:30.878Z,18.40
2018-09-25T04:30:30.879Z,18.30
2018-09-25T04:31:30.868Z,18.90
2018-09-25T04:32:30.842Z,19.30
2018-09-25T04:33:30.830Z,17.30
2018-09-25T04:34:30.821Z,18.20
2018-09-25T04:35:30.826Z,18.50
2018-09-25T04:36:30.811Z,17.80
2018-09-25T04:37:30.787Z,18.20
2018-09-25T04:38:30.776Z,17.00
2018-09-25T04:39:30.794Z,18.30
2018-09-25T04:40:30.794Z,17.90
2018-09-25T04:41:30.745Z,17.40
2018-09-25T04:42:30.731Z,18.20
2018-09-25T04:43:30.722Z,17.80
2018-09-25T04:44:30.711Z,18.40
2018-09-25T04:45:30.698Z,18.60
2018-09-25T04:46:30.700Z,18.80
2018-09-25T04:47:30.677Z,17.80
2018-09-25T04:48:30.666Z,18.30
2018-09-25T04:49:30.669Z,20.10
2018-09-25T04:50:30.647Z,19.20
2018-09-25T04:51:30.651Z,19.70
2018-09-25T04:52:30.624Z,18.80
2018-09-25T04:53:30.614Z,18.00
2018-09-25T04:54:30.604Z,18.50
2018-09-25T04:55:30.589Z,17.70
2018-09-25T04:56:30.594Z,19.20
2018-09-25T04:57:30.569Z,18.80
2018-09-25T04:58:30.561Z,18.60
2018-09-25T04:59:30.594Z,19.40
2018-09-25T05:00:30.535Z,19.90
2018-09-25T05:01:30.526Z,19.80
2018-09-25T05:02:30.517Z,21.00
2018-09-25T05:03:30.524Z,20.20
2018-09-25T05:04:30.491Z,20.80
2018-09-25T05:05:30.481Z,20.10
2018-09-25T05:06:30.496Z,19.90
2018-09-25T05:07:30.457Z,20.20
2018-09-25T05:08:30.464Z,19.60
2018-09-25T05:09:30.446Z,20.20
2018-09-25T05:10:30.426Z,20.10
2018-09-25T05:11:30.430Z,19.30
2018-09-25T05:12:30.404Z,20.30
2018-09-25T05:13:30.395Z,19.10
2018-09-25T05:14:30.384Z,19.40
2018-09-25T05:15:30.393Z,19.10
2018-09-25T05:16:30.363Z,18.60
2018-09-25T05:17:30.351Z,19.90
2018-09-25T05:18:30.338Z,19.80
2018-09-25T05:19:30.329Z,20.60
2018-09-25T05:20:30.317Z,21.10
2018-09-25T05:21:30.321Z,19.10
2018-09-25T05:22:30.295Z,20.20
2018-09-25T05:23:30.369Z,20.30
2018-09-25T05:24:30.273Z,20.20
2018-09-25T05:25:30.269Z,22.10
2018-09-25T05:26:30.266Z,21.00
2018-09-25T05:27:30.243Z,19.80
2018-09-25T05:28:30.229Z,45.80
2018-09-25T05:29:30.222Z,27.50
2018-09-25T05:30:30.207Z,25.10
2018-09-25T05:31:30.209Z,28.10
2018-09-25T05:32:30.206Z,29.80
2018-09-25T05:33:30.174Z,29.10
2018-09-25T05:34:30.162Z,28.00
2018-09-25T05:35:30.153Z,24.10
2018-09-25T05:36:30.143Z,21.90
2018-09-25T05:37:30.132Z,22.90
2018-09-25T05:38:30.135Z,22.20
2018-09-25T05:39:30.123Z,23.00
2018-09-25T05:40:30.096Z,24.80
2018-09-25T05:41:30.088Z,26.70
2018-09-25T05:42:30.090Z,25.70
2018-09-25T05:43:30.079Z,23.80
2018-09-25T05:44:30.065Z,25.60
2018-09-25T05:45:30.044Z,27.80
2018-09-25T05:46:30.045Z,26.60
2018-09-25T05:47:30.021Z,28.40
2018-09-25T05:48:30.220Z,34.40
2018-09-25T05:49:30.003Z,31.80
2018-09-25T05:50:29.989Z,32.10
2018-09-25T05:51:29.979Z,39.20
2018-09-25T05:52:29.966Z,40.00
2018-09-25T05:53:29.954Z,34.00
2018-09-25T05:54:29.961Z,27.80
2018-09-25T05:55:29.954Z,28.50
2018-09-25T05:56:29.921Z,27.90
2018-09-25T05:57:29.910Z,27.90
2018-09-25T05:58:29.901Z,26.40
2018-09-25T05:59:29.930Z,26.40
2018-09-25T06:00:29.879Z,25.70
2018-09-25T06:01:29.868Z,26.50
2018-09-25T06:02:29.860Z,29.10
2018-09-25T06:03:29.846Z,27.10
2018-09-25T06:04:29.835Z,29.10
2018-09-25T06:05:29.845Z,29.90
2018-09-25T06:06:29.813Z,29.20
2018-09-25T06:07:29.802Z,30.30
2018-09-25T06:08:29.791Z,29.70
2018-09-25T06:09:29.828Z,30.40
2018-09-25T06:10:29.768Z,33.10
2018-09-25T06:11:29.756Z,32.20
2018-09-25T06:12:29.745Z,32.20
2018-09-25T06:13:29.736Z,33.50
2018-09-25T06:14:29.723Z,32.10
2018-09-25T06:15:29.736Z,29.10
2018-09-25T06:16:29.705Z,27.30
2018-09-25T06:17:29.692Z,30.30
2018-09-25T06:18:29.685Z,27.90
2018-09-25T06:19:29.699Z,29.00
2018-09-25T06:20:29.659Z,29.10
2018-09-25T06:21:29.661Z,23.90
2018-09-25T06:22:29.637Z,26.60
2018-09-25T06:23:29.626Z,28.90
2018-09-25T06:24:29.613Z,30.20
2018-09-25T06:25:29.604Z,27.90
2018-09-25T06:26:29.611Z,28.00
2018-09-25T06:27:29.582Z,29.00
2018-09-25T06:28:29.571Z,28.40
2018-09-25T06:29:29.561Z,28.20
2018-09-25T06:30:29.548Z,30.70
2018-09-25T06:31:29.539Z,29.40
2018-09-25T06:32:29.540Z,30.70
2018-09-25T06:33:29.519Z,30.60
2018-09-25T06:34:29.599Z,29.60
2018-09-25T06:35:29.507Z,34.80
2018-09-25T06:36:29.482Z,38.60
2018-09-25T06:37:29.472Z,39.00
2018-09-25T06:38:29.461Z,37.60
2018-09-25T06:39:29.453Z,39.60
2018-09-25T06:40:29.454Z,32.70
2018-09-25T06:41:29.430Z,31.50
2018-09-25T06:42:29.419Z,37.20
2018-09-25T06:43:29.408Z,31.10
2018-09-25T06:44:29.441Z,30.40
2018-09-25T06:45:29.387Z,27.70
2018-09-25T06:46:29.378Z,28.50
2018-09-25T06:47:29.366Z,28.80
2018-09-25T06:48:29.358Z,27.50
2018-09-25T06:49:29.344Z,28.80
2018-09-25T06:50:29.348Z,25.60
2018-09-25T06:51:29.322Z,22.70
2018-09-25T06:52:29.311Z,22.20
2018-09-25T06:53:29.301Z,21.50
2018-09-25T06:54:29.288Z,20.70
2018-09-25T06:55:29.298Z,19.20
2018-09-25T06:56:29.268Z,18.80
2018-09-25T06:57:29.257Z,20.80
2018-09-25T06:58:29.245Z,21.30
2018-09-25T06:59:29.235Z,18.30
2018-09-25T07:00:29.223Z,19.30
2018-09-25T07:01:29.224Z,20.80
2018-09-25T07:02:29.200Z,21.80
2018-09-25T07:03:29.192Z,20.70
2018-09-25T07:04:29.179Z,21.40
2018-09-25T07:05:29.183Z,21.90
2018-09-25T07:06:29.157Z,23.60
2018-09-25T07:07:29.146Z,22.60
2018-09-25T07:08:29.157Z,21.30
2018-09-25T07:09:29.123Z,21.20
2018-09-25T07:10:29.225Z,20.00
2018-09-25T07:11:29.119Z,18.70
2018-09-25T07:12:29.092Z,17.40
2018-09-25T07:13:29.083Z,16.40
2018-09-25T07:14:29.070Z,16.70
2018-09-25T07:15:29.063Z,17.50
2018-09-25T07:16:29.063Z,22.00
2018-09-25T07:17:29.048Z,25.10
2018-09-25T07:18:29.052Z,18.70
2018-09-25T07:19:29.018Z,17.20
2018-09-25T07:20:29.007Z,15.80
2018-09-25T07:21:28.995Z,20.20
2018-09-25T07:22:28.985Z,18.70
2018-09-25T07:23:28.975Z,17.20
2018-09-25T07:24:29.021Z,14.70
2018-09-25T07:25:28.955Z,14.90
2018-09-25T07:26:28.940Z,16.40
2018-09-25T07:27:28.931Z,15.50
2018-09-25T07:28:28.918Z,15.30
2018-09-25T07:29:28.908Z,15.10
2018-09-25T07:30:28.918Z,15.70
2018-09-25T07:31:28.888Z,16.10
2018-09-25T07:32:28.894Z,14.50
2018-09-25T07:33:28.866Z,15.20
2018-09-25T07:34:28.859Z,15.30
2018-09-25T07:35:28.863Z,15.60
2018-09-25T07:36:28.853Z,15.60
2018-09-25T07:37:28.821Z,17.60
2018-09-25T07:38:28.831Z,16.60
2018-09-25T07:39:28.851Z,19.30
2018-09-25T07:40:28.792Z,17.10
2018-09-25T07:41:28.780Z,17.40
2018-09-25T07:42:28.783Z,16.90
2018-09-25T07:43:28.756Z,13.70
2018-09-25T07:44:28.767Z,12.80
2018-09-25T07:45:28.741Z,12.60
2018-09-25T07:46:28.751Z,14.60
2018-09-25T07:47:28.710Z,14.90
2018-09-25T07:48:28.702Z,13.60
2018-09-25T07:49:28.689Z,11.90
2018-09-25T07:50:28.692Z,11.10
2018-09-25T07:51:28.667Z,10.20
2018-09-25T07:52:28.656Z,10.40
2018-09-25T07:53:28.647Z,9.80
2018-09-25T07:54:28.649Z,9.30
2018-09-25T07:55:28.636Z,9.10
2018-09-25T07:56:28.613Z,9.80
2018-09-25T07:57:28.602Z,10.00
2018-09-25T07:58:28.592Z,10.50
2018-09-25T07:59:28.600Z,9.90
2018-09-25T08:00:28.568Z,11.20
2018-09-25T08:01:28.558Z,11.40
2018-09-25T08:02:28.545Z,10.80
2018-09-25T08:03:28.599Z,10.80
2018-09-25T08:04:28.525Z,9.50
2018-09-25T08:05:28.528Z,10.60
2018-09-25T08:06:28.504Z,11.00
2018-09-25T08:07:28.507Z,11.00
2018-09-25T08:08:28.482Z,10.80
2018-09-25T08:09:28.489Z,11.20
2018-09-25T08:10:28.459Z,11.80
2018-09-25T08:11:28.447Z,11.30
2018-09-25T08:12:28.439Z,11.40
2018-09-25T08:13:28.428Z,11.30
2018-09-25T08:14:28.414Z,10.10
2018-09-25T08:15:28.482Z,10.60
2018-09-25T08:16:28.392Z,10.00
2018-09-25T08:17:28.384Z,10.00
2018-09-25T08:18:28.373Z,10.30
2018-09-25T08:19:28.363Z,10.90
2018-09-25T08:20:28.365Z,10.50
2018-09-25T08:21:28.353Z,11.00
2018-09-25T08:22:28.330Z,10.00
2018-09-25T08:23:28.318Z,9.70
2018-09-25T08:24:28.325Z,10.60
2018-09-25T08:25:28.294Z,10.30
2018-09-25T08:26:28.284Z,10.80
2018-09-25T08:27:28.280Z,9.90
2018-09-25T08:28:28.268Z,9.80
2018-09-25T08:29:28.253Z,9.50
2018-09-25T08:30:28.258Z,9.60
2018-09-25T08:31:28.247Z,9.90
2018-09-25T08:32:28.219Z,9.60
2018-09-25T08:33:28.210Z,8.00
2018-09-25T08:34:28.197Z,8.90
2018-09-25T08:35:28.187Z,8.80
2018-09-25T08:36:28.179Z,8.10
2018-09-25T08:37:28.199Z,8.20
2018-09-25T08:38:28.241Z,9.00
2018-09-25T08:39:28.452Z,9.10
2018-09-25T08:40:28.144Z,8.70
2018-09-25T08:41:28.124Z,8.20
2018-09-25T08:42:28.124Z,9.10
2018-09-25T08:43:28.099Z,9.30
2018-09-25T08:44:28.086Z,10.00
2018-09-25T08:45:28.075Z,9.80
2018-09-25T08:46:28.066Z,8.20
2018-09-25T08:47:28.121Z,9.40
2018-09-25T08:48:28.043Z,9.70
2018-09-25T08:49:28.033Z,9.70
2018-09-25T08:50:28.023Z,9.40
2018-09-25T08:51:28.011Z,10.50
2018-09-25T08:52:27.997Z,9.40
2018-09-25T08:53:28.065Z,7.70
2018-09-25T08:54:27.976Z,7.00
2018-09-25T08:55:27.967Z,6.70
2018-09-25T08:56:27.955Z,8.10
2018-09-25T08:57:27.944Z,7.60
2018-09-25T08:58:27.972Z,8.10
2018-09-25T08:59:27.920Z,8.80
2018-09-25T09:00:27.909Z,9.70
2018-09-25T09:01:27.917Z,9.70
2018-09-25T09:02:27.887Z,9.40
2018-09-25T09:03:27.876Z,8.70
2018-09-25T09:04:27.881Z,8.70
2018-09-25T09:05:27.902Z,10.00
2018-09-25T09:06:27.856Z,9.80
2018-09-25T09:07:27.833Z,10.50
2018-09-25T09:08:27.897Z,9.90
2018-09-25T09:09:27.811Z,9.60
2018-09-25T09:10:27.814Z,8.90
2018-09-25T09:11:27.790Z,7.90
2018-09-25T09:12:27.778Z,7.40
2018-09-25T09:13:27.766Z,6.70
2018-09-25T09:14:27.757Z,6.20
2018-09-25T09:15:27.762Z,6.40
2018-09-25T09:16:27.761Z,6.30
2018-09-25T09:17:27.726Z,6.30
2018-09-25T09:18:27.714Z,6.20
2018-09-25T09:19:27.703Z,6.00
2018-09-25T09:20:27.691Z,5.60
2018-09-25T09:21:27.681Z,5.60
2018-09-25T09:22:27.692Z,5.80
2018-09-25T09:23:27.656Z,6.70
2018-09-25T09:24:27.669Z,5.50
2018-09-25T09:25:27.634Z,6.00
2018-09-25T09:26:27.645Z,9.00
2018-09-25T09:27:27.618Z,4.70
2018-09-25T09:28:27.604Z,4.80
2018-09-25T09:29:27.591Z,5.10
2018-09-25T09:30:27.609Z,4.60
2018-09-25T09:31:27.570Z,4.80
2018-09-25T09:32:27.595Z,5.10
2018-09-25T09:33:27.548Z,4.70
2018-09-25T09:34:27.538Z,5.00
2018-09-25T09:35:27.525Z,5.10
2018-09-25T09:36:27.515Z,5.40
2018-09-25T09:37:27.504Z,4.90
2018-09-25T09:38:27.506Z,4.50
2018-09-25T09:39:27.483Z,4.50
2018-09-25T09:40:27.470Z,4.50
2018-09-25T09:41:27.578Z,4.20
2018-09-25T09:42:27.472Z,4.30
2018-09-25T09:43:27.439Z,4.40
2018-09-25T09:44:27.429Z,4.90
2018-09-25T09:45:27.419Z,4.60
2018-09-25T09:46:27.405Z,5.10
2018-09-25T09:47:27.392Z,5.00
2018-09-25T09:48:27.398Z,4.60
2018-09-25T09:49:27.387Z,4.50
2018-09-25T09:50:27.436Z,4.20
2018-09-25T09:51:27.980Z,4.60
2018-09-25T09:52:27.340Z,4.50
2018-09-25T09:53:27.328Z,4.80
2018-09-25T09:54:27.335Z,3.90
2018-09-25T09:55:27.307Z,4.20
2018-09-25T09:56:27.336Z,4.60
2018-09-25T09:57:27.284Z,4.60
2018-09-25T09:58:27.284Z,4.50
2018-09-25T09:59:27.263Z,4.60
2018-09-25T10:00:27.266Z,4.00
2018-09-25T10:01:27.245Z,3.50
2018-09-25T10:02:27.233Z,3.60
2018-09-25T10:03:27.224Z,4.30
2018-09-25T10:04:27.212Z,4.30
2018-09-25T10:05:27.218Z,4.00
2018-09-25T10:06:27.192Z,4.10
2018-09-25T10:07:27.194Z,3.50
2018-09-25T10:08:27.169Z,3.80
2018-09-25T10:09:27.157Z,4.10
2018-09-25T10:10:27.161Z,3.70
2018-09-25T10:11:27.135Z,3.70
2018-09-25T10:12:27.296Z,3.60
2018-09-25T10:13:27.116Z,3.90
2018-09-25T10:14:27.106Z,3.70
2018-09-25T10:15:27.095Z,4.10
2018-09-25T10:16:27.084Z,3.90
2018-09-25T10:17:27.075Z,4.10
2018-09-25T10:18:27.079Z,3.60
2018-09-25T10:19:27.054Z,3.80
2018-09-25T10:20:27.043Z,3.80
2018-09-25T10:21:27.033Z,3.40
2018-09-25T10:22:27.040Z,3.40
2018-09-25T10:23:27.012Z,3.90
2018-09-25T10:24:27.007Z,3.70
2018-09-25T10:25:27.005Z,4.00
2018-09-25T10:26:26.978Z,3.40
2018-09-25T10:27:27.007Z,3.40
2018-09-25T10:28:26.989Z,3.50
2018-09-25T10:29:26.943Z,3.50
2018-09-25T10:30:26.930Z,3.40
2018-09-25T10:31:26.919Z,3.40
2018-09-25T10:32:26.908Z,2.70
2018-09-25T10:33:26.898Z,3.20
2018-09-25T10:34:26.901Z,3.10
2018-09-25T10:35:26.878Z,2.70
2018-09-25T10:36:26.868Z,2.90
2018-09-25T10:37:26.856Z,3.00
2018-09-25T10:38:26.857Z,2.60
2018-09-25T10:39:26.836Z,2.60
2018-09-25T10:40:26.825Z,2.70
2018-09-25T10:41:26.813Z,2.10
2018-09-25T10:42:26.818Z,2.50
2018-09-25T10:43:26.792Z,2.10
2018-09-25T10:44:26.780Z,2.10
2018-09-25T10:45:26.769Z,2.10
2018-09-25T10:46:26.755Z,2.30
2018-09-25T10:47:26.761Z,2.50
2018-09-25T10:48:26.760Z,2.50
2018-09-25T10:49:26.723Z,2.50
2018-09-25T10:50:26.714Z,2.40
2018-09-25T10:51:26.735Z,2.90
2018-09-25T10:52:26.690Z,1.90
2018-09-25T10:53:26.681Z,2.10
2018-09-25T10:54:26.668Z,1.80
2018-09-25T10:55:26.720Z,1.70
2018-09-25T10:56:26.644Z,1.80
2018-09-25T10:57:26.658Z,1.90
2018-09-25T10:58:26.624Z,2.10
2018-09-25T10:59:26.615Z,1.90
2018-09-25T11:00:26.603Z,2.00
2018-09-25T11:01:26.591Z,1.60
2018-09-25T11:02:26.581Z,1.50
2018-09-25T11:03:26.583Z,1.30
2018-09-25T11:04:26.574Z,1.80
2018-09-25T11:05:26.548Z,1.50
2018-09-25T11:06:26.537Z,1.60
2018-09-25T11:07:26.539Z,1.50
2018-09-25T11:08:26.515Z,1.40
2018-09-25T11:09:26.519Z,1.30
2018-09-25T11:10:26.493Z,1.20
2018-09-25T11:11:26.484Z,1.20
2018-09-25T11:12:26.475Z,1.30
2018-09-25T11:13:26.460Z,1.30
2018-09-25T11:14:26.462Z,1.40
2018-09-25T11:15:26.438Z,1.40
2018-09-25T11:16:26.430Z,1.20
2018-09-25T11:17:26.417Z,1.30
2018-09-25T11:18:26.421Z,1.30
2018-09-25T11:19:26.395Z,1.50
2018-09-25T11:20:26.386Z,1.30
2018-09-25T11:21:26.374Z,1.50
2018-09-25T11:22:26.364Z,1.50
2018-09-25T11:23:26.376Z,1.40
2018-09-25T11:24:26.343Z,1.30
2018-09-25T11:25:26.360Z,1.20
2018-09-25T11:26:26.319Z,1.10
2018-09-25T11:27:26.309Z,1.20
2018-09-25T11:28:26.296Z,1.30
2018-09-25T11:29:26.301Z,1.50
2018-09-25T11:30:26.290Z,1.10
2018-09-25T11:31:26.264Z,1.20
2018-09-25T11:32:26.253Z,1.10
2018-09-25T11:33:26.244Z,1.10
2018-09-25T11:34:26.233Z,0.90
2018-09-25T11:35:26.316Z,1.20
2018-09-25T11:36:26.212Z,1.00
2018-09-25T11:37:26.202Z,1.10
2018-09-25T11:38:26.189Z,1.30
2018-09-25T11:39:26.180Z,0.90
2018-09-25T11:40:26.185Z,0.90
2018-09-25T11:41:26.282Z,1.00
2018-09-25T11:42:26.149Z,1.00
2018-09-25T11:43:26.148Z,0.60
2018-09-25T11:44:26.125Z,0.90
2018-09-25T11:45:26.129Z,0.80
2018-09-25T11:46:26.119Z,0.90
2018-09-25T11:47:26.106Z,1.00
2018-09-25T11:48:26.082Z,0.90
2018-09-25T11:49:26.070Z,0.50
2018-09-25T11:50:26.103Z,0.60
2018-09-25T11:51:26.055Z,0.70
2018-09-25T11:52:26.075Z,0.80
2018-09-25T11:53:26.038Z,0.80
2018-09-25T11:54:26.017Z,0.50
2018-09-25T11:55:26.008Z,0.70
2018-09-25T11:56:26.002Z,0.80
2018-09-25T11:57:25.987Z,0.90
2018-09-25T11:58:26.041Z,0.80
2018-09-25T11:59:25.965Z,0.80
2018-09-25T12:00:25.952Z,0.70
2018-09-25T12:01:25.944Z,0.80
2018-09-25T12:02:25.935Z,0.70
2018-09-25T12:03:25.919Z,0.60
2018-09-25T12:04:25.931Z,0.70
2018-09-25T12:05:25.898Z,0.70
2018-09-25T12:06:25.888Z,0.80
2018-09-25T12:07:25.878Z,0.60
2018-09-25T12:08:25.905Z,0.60
2018-09-25T12:09:25.856Z,0.60
2018-09-25T12:10:25.845Z,0.50
2018-09-25T12:11:25.834Z,0.50
2018-09-25T12:12:25.821Z,0.80
2018-09-25T12:13:25.811Z,0.60
2018-09-25T12:14:25.816Z,0.70
2018-09-25T12:15:25.804Z,0.50
2018-09-25T12:16:25.779Z,0.50
2018-09-25T12:17:25.832Z,0.70
2018-09-25T12:18:25.757Z,0.60
2018-09-25T12:19:25.791Z,0.80
2018-09-25T12:20:25.733Z,1.00
2018-09-25T12:21:25.722Z,0.80
2018-09-25T12:22:25.713Z,0.90
2018-09-25T12:23:25.761Z,0.60
2018-09-25T12:24:25.797Z,0.90
2018-09-25T12:25:25.695Z,0.80
2018-09-25T12:26:25.684Z,0.70
2018-09-25T12:27:25.659Z,0.80
2018-09-25T12:28:25.666Z,0.90
2018-09-25T12:29:25.637Z,0.50
2018-09-25T12:30:25.629Z,0.50
2018-09-25T12:31:25.629Z,0.70
2018-09-25T12:32:25.658Z,0.70
2018-09-25T12:33:25.596Z,0.80
2018-09-25T12:34:25.582Z,0.70
2018-09-25T12:35:25.573Z,0.50
2018-09-25T12:36:25.577Z,0.70
2018-09-25T12:37:25.552Z,0.60
2018-09-25T12:38:25.537Z,0.60
2018-09-25T12:39:25.525Z,0.80
2018-09-25T12:40:25.515Z,0.80
2018-09-25T12:41:25.504Z,0.50
2018-09-25T12:42:25.508Z,0.70
2018-09-25T12:43:25.486Z,0.70
2018-09-25T12:44:25.472Z,0.60
2018-09-25T12:45:25.462Z,0.70
2018-09-25T12:46:25.464Z,0.60
2018-09-25T12:47:25.454Z,0.70
2018-09-25T12:48:25.428Z,0.60
2018-09-25T12:49:25.419Z,0.50
2018-09-25T12:50:25.409Z,0.60
2018-09-25T12:51:25.411Z,0.80
2018-09-25T12:52:25.467Z,0.70
2018-09-25T12:53:25.377Z,0.60
2018-09-25T12:54:25.368Z,0.60
2018-09-25T12:55:25.354Z,0.70
2018-09-25T12:56:25.344Z,0.70
2018-09-25T12:57:25.334Z,0.50
2018-09-25T12:58:25.346Z,0.60
2018-09-25T12:59:25.340Z,0.50
2018-09-25T13:00:25.301Z,0.60
2018-09-25T13:01:25.287Z,0.70
2018-09-25T13:02:25.279Z,0.60
2018-09-25T13:03:25.267Z,0.60
2018-09-25T13:04:25.295Z,0.50
2018-09-25T13:05:25.251Z,0.50
2018-09-25T13:06:25.238Z,0.70